sensor_id;sensor_type;location;lat;lon;timestamp;pressure;altitude;pressure_sealevel;temperature;humidity
10806;BME280;5455;53.224;6.000;2022-10-31T00:01:24;101988.91;;;11.71;100.00
10806;BME280;5455;53.224;6.000;2022-10-31T00:03:51;102000.44;;;11.73;100.00
10806;BME280;5455;53.224;6.000;2022-10-31T00:06:18;101992.28;;;11.77;100.00
10806;BME280;5455;53.224;6.000;2022-10-31T00:08:46;101993.41;;;11.76;100.00
10806;BME280;5455;53.224;6.000;2022-10-31T00:11:13;101992.47;;;11.72;100.00
10806;BME280;5455;53.224;6.000;2022-10-31T00:13:40;101990.34;;;11.69;100.00
10806;BME280;5455;53.224;6.000;2022-10-31T00:16:16;101996.84;;;11.73;100.00
10806;BME280;5455;53.224;6.000;2022-10-31T00:18:44;101994.56;;;11.75;100.00
10806;BME280;5455;53.224;6.000;2022-10-31T00:21:15;102004.00;;;11.74;100.00
10806;BME280;5455;53.224;6.000;2022-10-31T00:23:42;101999.28;;;11.74;100.00
10806;BME280;5455;53.224;6.000;2022-10-31T00:26:09;102009.53;;;11.74;100.00
10806;BME280;5455;53.224;6.000;2022-10-31T00:28:36;102012.28;;;11.74;100.00
10806;BME280;5455;53.224;6.000;2022-10-31T00:31:06;101996.41;;;11.71;100.00
10806;BME280;5455;53.224;6.000;2022-10-31T00:33:38;101993.91;;;11.69;100.00
10806;BME280;5455;53.224;6.000;2022-10-31T00:36:06;101994.78;;;11.70;100.00
10806;BME280;5455;53.224;6.000;2022-10-31T00:38:33;102000.13;;;11.66;100.00
10806;BME280;5455;53.224;6.000;2022-10-31T00:41:00;102000.63;;;11.68;100.00
10806;BME280;5455;53.224;6.000;2022-10-31T00:43:27;102000.47;;;11.65;100.00
10806;BME280;5455;53.224;6.000;2022-10-31T00:45:55;102002.78;;;11.63;100.00
10806;BME280;5455;53.224;6.000;2022-10-31T00:48:23;102008.75;;;11.65;100.00
10806;BME280;5455;53.224;6.000;2022-10-31T00:50:52;102003.56;;;11.63;100.00
10806;BME280;5455;53.224;6.000;2022-10-31T00:53:19;102006.00;;;11.65;100.00
10806;BME280;5455;53.224;6.000;2022-10-31T00:55:47;102011.66;;;11.68;100.00
10806;BME280;5455;53.224;6.000;2022-10-31T00:58:14;102010.38;;;11.66;100.00
10806;BME280;5455;53.224;6.000;2022-10-31T01:00:41;102009.75;;;11.60;100.00
10806;BME280;5455;53.224;6.000;2022-10-31T01:03:12;102016.63;;;11.54;100.00
10806;BME280;5455;53.224;6.000;2022-10-31T01:05:40;102016.19;;;11.52;100.00
10806;BME280;5455;53.224;6.000;2022-10-31T01:08:08;102020.44;;;11.49;100.00
10806;BME280;5455;53.224;6.000;2022-10-31T01:10:35;102022.06;;;11.50;100.00
10806;BME280;5455;53.224;6.000;2022-10-31T01:13:02;102012.47;;;11.48;100.00
10806;BME280;5455;53.224;6.000;2022-10-31T01:15:29;102020.88;;;11.51;100.00
10806;BME280;5455;53.224;6.000;2022-10-31T01:17:55;102025.75;;;11.54;100.00
10806;BME280;5455;53.224;6.000;2022-10-31T01:20:23;102028.03;;;11.52;100.00
10806;BME280;5455;53.224;6.000;2022-10-31T01:22:50;102034.38;;;11.53;100.00
10806;BME280;5455;53.224;6.000;2022-10-31T01:25:17;102027.22;;;11.52;100.00
10806;BME280;5455;53.224;6.000;2022-10-31T01:27:44;102032.28;;;11.50;100.00
10806;BME280;5455;53.224;6.000;2022-10-31T01:30:11;102027.44;;;11.47;100.00
10806;BME280;5455;53.224;6.000;2022-10-31T01:32:38;102027.16;;;11.40;100.00
10806;BME280;5455;53.224;6.000;2022-10-31T01:35:05;102028.94;;;11.36;100.00
10806;BME280;5455;53.224;6.000;2022-10-31T01:37:32;102028.78;;;11.41;100.00
10806;BME280;5455;53.224;6.000;2022-10-31T01:39:59;102024.25;;;11.36;100.00
10806;BME280;5455;53.224;6.000;2022-10-31T01:42:26;102030.78;;;11.32;100.00
10806;BME280;5455;53.224;6.000;2022-10-31T01:44:59;102032.28;;;11.29;100.00
10806;BME280;5455;53.224;6.000;2022-10-31T01:47:32;102021.75;;;11.23;100.00
10806;BME280;5455;53.224;6.000;2022-10-31T01:50:03;102022.75;;;11.18;100.00
10806;BME280;5455;53.224;6.000;2022-10-31T01:52:45;102022.88;;;11.22;100.00
10806;BME280;5455;53.224;6.000;2022-10-31T01:55:35;102023.09;;;11.17;100.00
10806;BME280;5455;53.224;6.000;2022-10-31T01:58:08;102020.50;;;11.12;100.00
10806;BME280;5455;53.224;6.000;2022-10-31T02:00:36;102023.94;;;11.08;100.00
10806;BME280;5455;53.224;6.000;2022-10-31T02:03:04;102028.00;;;11.11;100.00
10806;BME280;5455;53.224;6.000;2022-10-31T02:05:31;102033.03;;;11.09;100.00
10806;BME280;5455;53.224;6.000;2022-10-31T02:10:48;102032.88;;;11.05;100.00
10806;BME280;5455;53.224;6.000;2022-10-31T02:13:17;102033.88;;;11.01;100.00
10806;BME280;5455;53.224;6.000;2022-10-31T02:15:51;102031.59;;;11.03;100.00
10806;BME280;5455;53.224;6.000;2022-10-31T02:18:18;102036.78;;;11.04;100.00
10806;BME280;5455;53.224;6.000;2022-10-31T02:21:14;102026.44;;;11.01;100.00
10806;BME280;5455;53.224;6.000;2022-10-31T02:32:29;102024.13;;;11.03;100.00
10806;BME280;5455;53.224;6.000;2022-10-31T02:40:14;102024.47;;;11.02;100.00
10806;BME280;5455;53.224;6.000;2022-10-31T02:43:21;102018.66;;;10.95;100.00
10806;BME280;5455;53.224;6.000;2022-10-31T02:48:25;102019.00;;;10.93;100.00
10806;BME280;5455;53.224;6.000;2022-10-31T02:50:59;102014.00;;;10.87;100.00
10806;BME280;5455;53.224;6.000;2022-10-31T02:53:35;102011.72;;;10.89;100.00
10806;BME280;5455;53.224;6.000;2022-10-31T02:56:16;102020.81;;;10.89;100.00
10806;BME280;5455;53.224;6.000;2022-10-31T02:58:51;102011.41;;;10.90;100.00
10806;BME280;5455;53.224;6.000;2022-10-31T03:06:45;102001.50;;;10.89;100.00
10806;BME280;5455;53.224;6.000;2022-10-31T03:09:21;101999.41;;;10.86;100.00
10806;BME280;5455;53.224;6.000;2022-10-31T03:12:05;101999.72;;;10.85;100.00
10806;BME280;5455;53.224;6.000;2022-10-31T03:14:46;102000.06;;;10.83;100.00
10806;BME280;5455;53.224;6.000;2022-10-31T03:17:23;102000.38;;;10.82;100.00
10806;BME280;5455;53.224;6.000;2022-10-31T03:19:53;102002.00;;;10.83;100.00
10806;BME280;5455;53.224;6.000;2022-10-31T03:22:28;102008.84;;;10.77;100.00
10806;BME280;5455;53.224;6.000;2022-10-31T03:24:58;102005.94;;;10.73;100.00
10806;BME280;5455;53.224;6.000;2022-10-31T03:27:29;102012.63;;;10.72;100.00
10806;BME280;5455;53.224;6.000;2022-10-31T03:30:00;102018.25;;;10.76;100.00
10806;BME280;5455;53.224;6.000;2022-10-31T03:35:03;102012.13;;;10.70;100.00
10806;BME280;5455;53.224;6.000;2022-10-31T03:37:34;102013.13;;;10.66;100.00
10806;BME280;5455;53.224;6.000;2022-10-31T03:40:05;102015.88;;;10.66;100.00
10806;BME280;5455;53.224;6.000;2022-10-31T03:42:37;102013.63;;;10.59;100.00
10806;BME280;5455;53.224;6.000;2022-10-31T03:45:09;102017.72;;;10.53;100.00
10806;BME280;5455;53.224;6.000;2022-10-31T03:47:40;102019.34;;;10.54;100.00
10806;BME280;5455;53.224;6.000;2022-10-31T03:50:12;102025.78;;;10.58;100.00
10806;BME280;5455;53.224;6.000;2022-10-31T03:52:54;102020.28;;;10.58;100.00
10806;BME280;5455;53.224;6.000;2022-10-31T03:55:28;102035.22;;;10.57;100.00
10806;BME280;5455;53.224;6.000;2022-10-31T03:58:00;102033.59;;;10.56;100.00
10806;BME280;5455;53.224;6.000;2022-10-31T04:00:32;102028.09;;;10.56;100.00
10806;BME280;5455;53.224;6.000;2022-10-31T04:03:06;102026.00;;;10.53;100.00
10806;BME280;5455;53.224;6.000;2022-10-31T04:05:37;102035.88;;;10.54;100.00
10806;BME280;5455;53.224;6.000;2022-10-31T04:08:08;102026.19;;;10.48;100.00
10806;BME280;5455;53.224;6.000;2022-10-31T04:10:37;102042.72;;;10.48;100.00
10806;BME280;5455;53.224;6.000;2022-10-31T04:13:12;102035.41;;;10.43;100.00
10806;BME280;5455;53.224;6.000;2022-10-31T04:15:47;102039.66;;;10.41;100.00
10806;BME280;5455;53.224;6.000;2022-10-31T04:18:17;102039.03;;;10.35;100.00
10806;BME280;5455;53.224;6.000;2022-10-31T04:20:44;102040.50;;;10.33;100.00
10806;BME280;5455;53.224;6.000;2022-10-31T04:23:20;102036.59;;;10.25;100.00
10806;BME280;5455;53.224;6.000;2022-10-31T04:25:49;102030.94;;;10.22;100.00
10806;BME280;5455;53.224;6.000;2022-10-31T04:28:18;102030.28;;;10.16;100.00
10806;BME280;5455;53.224;6.000;2022-10-31T04:30:51;102035.34;;;10.14;100.00
10806;BME280;5455;53.224;6.000;2022-10-31T04:33:18;102035.63;;;10.13;100.00
10806;BME280;5455;53.224;6.000;2022-10-31T04:35:46;102034.22;;;10.15;100.00
10806;BME280;5455;53.224;6.000;2022-10-31T04:38:13;102037.75;;;10.16;100.00
10806;BME280;5455;53.224;6.000;2022-10-31T04:40:42;102032.84;;;10.13;100.00
10806;BME280;5455;53.224;6.000;2022-10-31T04:43:29;102038.38;;;10.13;100.00
10806;BME280;5455;53.224;6.000;2022-10-31T04:45:58;102025.75;;;10.12;100.00
10806;BME280;5455;53.224;6.000;2022-10-31T04:48:25;102033.19;;;10.11;100.00
10806;BME280;5455;53.224;6.000;2022-10-31T04:50:52;102035.16;;;10.11;100.00
10806;BME280;5455;53.224;6.000;2022-10-31T04:53:19;102032.06;;;10.04;100.00
10806;BME280;5455;53.224;6.000;2022-10-31T04:56:06;102023.78;;;10.04;100.00
10806;BME280;5455;53.224;6.000;2022-10-31T04:58:40;102029.81;;;10.06;100.00
10806;BME280;5455;53.224;6.000;2022-10-31T05:01:09;102027.72;;;10.03;100.00
10806;BME280;5455;53.224;6.000;2022-10-31T05:03:36;102023.34;;;9.93;100.00
10806;BME280;5455;53.224;6.000;2022-10-31T05:06:03;102024.63;;;9.87;100.00
10806;BME280;5455;53.224;6.000;2022-10-31T05:08:30;102026.91;;;9.85;100.00
10806;BME280;5455;53.224;6.000;2022-10-31T05:11:02;102025.44;;;9.87;100.00
10806;BME280;5455;53.224;6.000;2022-10-31T05:13:31;102027.22;;;9.83;100.00
10806;BME280;5455;53.224;6.000;2022-10-31T05:16:27;102025.47;;;9.79;100.00
10806;BME280;5455;53.224;6.000;2022-10-31T05:19:13;102017.97;;;9.79;100.00
10806;BME280;5455;53.224;6.000;2022-10-31T05:22:02;102024.00;;;9.90;100.00
10806;BME280;5455;53.224;6.000;2022-10-31T05:24:31;102022.34;;;9.97;100.00
10806;BME280;5455;53.224;6.000;2022-10-31T05:26:58;102028.50;;;9.94;100.00
10806;BME280;5455;53.224;6.000;2022-10-31T05:29:25;102029.16;;;9.91;100.00
10806;BME280;5455;53.224;6.000;2022-10-31T05:31:52;102027.56;;;9.90;100.00
10806;BME280;5455;53.224;6.000;2022-10-31T05:34:39;102032.56;;;9.88;100.00
10806;BME280;5455;53.224;6.000;2022-10-31T05:37:29;102023.50;;;9.88;100.00
10806;BME280;5455;53.224;6.000;2022-10-31T05:39:56;102033.53;;;9.92;100.00
10806;BME280;5455;53.224;6.000;2022-10-31T05:42:23;102027.06;;;9.88;100.00
10806;BME280;5455;53.224;6.000;2022-10-31T05:44:50;102024.63;;;9.87;100.00
10806;BME280;5455;53.224;6.000;2022-10-31T05:47:37;102024.31;;;9.88;100.00
10806;BME280;5455;53.224;6.000;2022-10-31T05:50:28;102023.81;;;9.86;100.00
10806;BME280;5455;53.224;6.000;2022-10-31T05:53:05;102024.63;;;9.87;100.00
10806;BME280;5455;53.224;6.000;2022-10-31T05:55:36;102024.63;;;9.87;100.00
10806;BME280;5455;53.224;6.000;2022-10-31T05:58:10;102022.34;;;9.89;100.00
10806;BME280;5455;53.224;6.000;2022-10-31T06:00:39;102014.59;;;9.91;100.00
10806;BME280;5455;53.224;6.000;2022-10-31T06:03:09;102014.25;;;9.92;100.00
10806;BME280;5455;53.224;6.000;2022-10-31T06:05:47;102012.31;;;9.93;100.00
10806;BME280;5455;53.224;6.000;2022-10-31T06:08:22;102018.13;;;9.91;100.00
10806;BME280;5455;53.224;6.000;2022-10-31T06:10:50;102013.78;;;9.90;100.00
10806;BME280;5455;53.224;6.000;2022-10-31T06:13:24;102014.59;;;9.82;100.00
10806;BME280;5455;53.224;6.000;2022-10-31T06:16:10;102014.13;;;9.72;100.00
10806;BME280;5455;53.224;6.000;2022-10-31T06:18:39;102011.19;;;9.68;100.00
10806;BME280;5455;53.224;6.000;2022-10-31T06:21:06;102009.59;;;9.67;100.00
10806;BME280;5455;53.224;6.000;2022-10-31T06:23:35;102010.25;;;9.64;100.00
10806;BME280;5455;53.224;6.000;2022-10-31T06:26:22;102009.09;;;9.65;100.00
10806;BME280;5455;53.224;6.000;2022-10-31T06:28:49;102006.34;;;9.65;100.00
10806;BME280;5455;53.224;6.000;2022-10-31T06:31:28;102012.34;;;9.67;100.00
10806;BME280;5455;53.224;6.000;2022-10-31T06:33:56;102009.91;;;9.74;100.00
10806;BME280;5455;53.224;6.000;2022-10-31T06:36:23;102010.88;;;9.78;100.00
10806;BME280;5455;53.224;6.000;2022-10-31T06:38:52;102011.69;;;9.79;100.00
10806;BME280;5455;53.224;6.000;2022-10-31T06:41:22;102006.97;;;9.79;100.00
10806;BME280;5455;53.224;6.000;2022-10-31T06:43:51;102009.72;;;9.79;100.00
10806;BME280;5455;53.224;6.000;2022-10-31T06:46:33;102009.91;;;9.74;100.00
10806;BME280;5455;53.224;6.000;2022-10-31T06:49:21;102019.94;;;9.70;100.00
10806;BME280;5455;53.224;6.000;2022-10-31T06:51:53;102008.78;;;9.67;100.00
10806;BME280;5455;53.224;6.000;2022-10-31T06:54:22;102012.34;;;9.67;100.00
10806;BME280;5455;53.224;6.000;2022-10-31T06:56:49;102021.56;;;9.71;100.00
10806;BME280;5455;53.224;6.000;2022-10-31T06:59:16;102018.50;;;9.73;100.00
10806;BME280;5455;53.224;6.000;2022-10-31T07:02:10;102006.66;;;9.72;100.00
10806;BME280;5455;53.224;6.000;2022-10-31T07:04:39;102008.25;;;9.73;100.00
10806;BME280;5455;53.224;6.000;2022-10-31T07:07:08;102010.53;;;9.71;100.00
10806;BME280;5455;53.224;6.000;2022-10-31T07:09:37;102016.88;;;9.72;100.00
10806;BME280;5455;53.224;6.000;2022-10-31T07:12:04;102021.56;;;9.71;100.00
10806;BME280;5455;53.224;6.000;2022-10-31T07:14:35;102024.78;;;9.73;100.00
10806;BME280;5455;53.224;6.000;2022-10-31T07:17:02;102034.84;;;9.78;100.00
10806;BME280;5455;53.224;6.000;2022-10-31T07:19:36;102033.88;;;9.82;100.00
10806;BME280;5455;53.224;6.000;2022-10-31T07:22:04;102033.72;;;9.87;100.00
10806;BME280;5455;53.224;6.000;2022-10-31T07:24:32;102037.41;;;9.91;100.00
10806;BME280;5455;53.224;6.000;2022-10-31T07:27:18;102034.00;;;9.94;100.00
10806;BME280;5455;53.224;6.000;2022-10-31T07:29:47;102031.13;;;10.00;100.00
10806;BME280;5455;53.224;6.000;2022-10-31T07:32:15;102029.00;;;10.05;100.00
10806;BME280;5455;53.224;6.000;2022-10-31T07:34:50;102040.66;;;10.11;100.00
10806;BME280;5455;53.224;6.000;2022-10-31T07:37:22;102036.78;;;10.12;100.00
10806;BME280;5455;53.224;6.000;2022-10-31T07:39:51;102037.28;;;10.14;100.00
10806;BME280;5455;53.224;6.000;2022-10-31T07:42:18;102040.34;;;10.12;100.00
10806;BME280;5455;53.224;6.000;2022-10-31T07:44:45;102046.53;;;10.18;100.00
10806;BME280;5455;53.224;6.000;2022-10-31T07:47:47;102041.47;;;10.28;100.00
10806;BME280;5455;53.224;6.000;2022-10-31T07:50:33;102043.09;;;10.29;100.00
10806;BME280;5455;53.224;6.000;2022-10-31T07:53:23;102058.50;;;10.30;100.00
10806;BME280;5455;53.224;6.000;2022-10-31T07:55:59;102050.38;;;10.34;100.00
10806;BME280;5455;53.224;6.000;2022-10-31T07:58:29;102047.75;;;10.37;100.00
10806;BME280;5455;53.224;6.000;2022-10-31T08:00:58;102053.75;;;10.39;100.00
10806;BME280;5455;53.224;6.000;2022-10-31T08:03:33;102052.13;;;10.47;100.00
10806;BME280;5455;53.224;6.000;2022-10-31T08:06:08;102053.09;;;10.51;100.00
10806;BME280;5455;53.224;6.000;2022-10-31T08:08:38;102055.66;;;10.56;100.00
10806;BME280;5455;53.224;6.000;2022-10-31T08:11:07;102057.41;;;10.61;100.00
10806;BME280;5455;53.224;6.000;2022-10-31T08:13:34;102059.53;;;10.64;100.00
10806;BME280;5455;53.224;6.000;2022-10-31T08:16:02;102060.50;;;10.68;100.00
10806;BME280;5455;53.224;6.000;2022-10-31T08:18:35;102061.63;;;10.75;100.00
10806;BME280;5455;53.224;6.000;2022-10-31T08:21:06;102057.19;;;10.83;100.00
10806;BME280;5455;53.224;6.000;2022-10-31T08:23:34;102065.34;;;10.71;100.00
10806;BME280;5455;53.224;6.000;2022-10-31T08:26:01;102066.38;;;10.95;100.00
10806;BME280;5455;53.224;6.000;2022-10-31T08:28:29;102069.41;;;11.11;100.00
10806;BME280;5455;53.224;6.000;2022-10-31T08:30:58;102068.19;;;11.21;100.00
10806;BME280;5455;53.224;6.000;2022-10-31T08:33:40;102073.53;;;11.26;100.00
10806;BME280;5455;53.224;6.000;2022-10-31T08:36:27;102073.03;;;11.32;100.00
10806;BME280;5455;53.224;6.000;2022-10-31T08:39:16;102059.63;;;11.43;100.00
10806;BME280;5455;53.224;6.000;2022-10-31T08:41:44;102069.78;;;11.51;100.00
10806;BME280;5455;53.224;6.000;2022-10-31T08:44:12;102064.56;;;11.58;100.00
10806;BME280;5455;53.224;6.000;2022-10-31T08:46:39;102067.09;;;11.63;100.00
10806;BME280;5455;53.224;6.000;2022-10-31T08:49:06;102072.44;;;11.68;100.00
10806;BME280;5455;53.224;6.000;2022-10-31T08:51:33;102076.97;;;11.73;100.00
10806;BME280;5455;53.224;6.000;2022-10-31T08:54:00;102075.19;;;11.77;100.00
10806;BME280;5455;53.224;6.000;2022-10-31T08:56:33;102072.56;;;11.80;100.00
10806;BME280;5455;53.224;6.000;2022-10-31T08:59:04;102066.34;;;11.83;100.00
10806;BME280;5455;53.224;6.000;2022-10-31T09:02:02;102068.53;;;11.90;100.00
10806;BME280;5455;53.224;6.000;2022-10-31T09:04:29;102069.97;;;11.96;100.00
10806;BME280;5455;53.224;6.000;2022-10-31T09:06:57;102066.19;;;12.00;100.00
10806;BME280;5455;53.224;6.000;2022-10-31T09:09:44;102068.75;;;12.05;100.00
10806;BME280;5455;53.224;6.000;2022-10-31T09:12:11;102067.06;;;12.13;100.00
10806;BME280;5455;53.224;6.000;2022-10-31T09:14:59;102061.31;;;12.18;100.00
10806;BME280;5455;53.224;6.000;2022-10-31T09:17:46;102062.03;;;12.27;100.00
10806;BME280;5455;53.224;6.000;2022-10-31T09:20:29;102052.00;;;12.35;100.00
10806;BME280;5455;53.224;6.000;2022-10-31T09:23:03;102053.41;;;12.41;100.00
10806;BME280;5455;53.224;6.000;2022-10-31T09:25:34;102044.22;;;12.49;100.00
10806;BME280;5455;53.224;6.000;2022-10-31T09:28:31;102050.94;;;12.60;100.00
10806;BME280;5455;53.224;6.000;2022-10-31T09:31:10;102051.19;;;12.67;100.00
10806;BME280;5455;53.224;6.000;2022-10-31T09:33:46;102054.16;;;12.74;100.00
10806;BME280;5455;53.224;6.000;2022-10-31T09:36:33;102057.56;;;12.80;100.00
10806;BME280;5455;53.224;6.000;2022-10-31T09:38:59;102052.09;;;12.83;100.00
10806;BME280;5455;53.224;6.000;2022-10-31T09:41:43;102056.94;;;12.86;100.00
10806;BME280;5455;53.224;6.000;2022-10-31T09:44:30;102049.59;;;12.90;100.00
10806;BME280;5455;53.224;6.000;2022-10-31T09:52:30;102052.47;;;13.06;100.00
10806;BME280;5455;53.224;6.000;2022-10-31T09:57:33;102045.22;;;13.13;100.00
10806;BME280;5455;53.224;6.000;2022-10-31T10:00:04;102042.81;;;13.12;100.00
10806;BME280;5455;53.224;6.000;2022-10-31T10:03:42;102043.50;;;13.09;100.00
10806;BME280;5455;53.224;6.000;2022-10-31T10:05:56;102043.34;;;13.05;100.00
10806;BME280;5455;53.224;6.000;2022-10-31T10:08:37;102045.69;;;13.03;100.00
10806;BME280;5455;53.224;6.000;2022-10-31T10:11:50;102037.47;;;12.95;100.00
10806;BME280;5455;53.224;6.000;2022-10-31T10:25:57;102027.56;;;13.06;100.00
10806;BME280;5455;53.224;6.000;2022-10-31T10:28:30;102027.34;;;13.23;100.00
10806;BME280;5455;53.224;6.000;2022-10-31T10:31:23;102029.75;;;13.37;100.00
10806;BME280;5455;53.224;6.000;2022-10-31T10:34:07;102029.72;;;13.49;100.00
10806;BME280;5455;53.224;6.000;2022-10-31T10:41:48;102027.25;;;13.99;100.00
10806;BME280;5455;53.224;6.000;2022-10-31T10:44:46;102021.69;;;13.99;100.00
10806;BME280;5455;53.224;6.000;2022-10-31T10:47:59;102023.88;;;14.06;100.00
10806;BME280;5455;53.224;6.000;2022-10-31T10:50:36;102018.78;;;14.08;100.00
10806;BME280;5455;53.224;6.000;2022-10-31T10:53:08;102018.88;;;14.11;100.00
10806;BME280;5455;53.224;6.000;2022-10-31T10:55:58;102016.38;;;14.22;100.00
10806;BME280;5455;53.224;6.000;2022-10-31T10:58:27;102017.00;;;14.31;100.00
10806;BME280;5455;53.224;6.000;2022-10-31T11:00:54;102013.94;;;14.32;100.00
10806;BME280;5455;53.224;6.000;2022-10-31T11:03:22;102008.44;;;14.36;100.00
10806;BME280;5455;53.224;6.000;2022-10-31T11:05:56;102005.34;;;14.38;100.00
10806;BME280;5455;53.224;6.000;2022-10-31T11:08:31;102005.91;;;14.31;100.00
10806;BME280;5455;53.224;6.000;2022-10-31T11:11:02;102004.28;;;14.30;100.00
10806;BME280;5455;53.224;6.000;2022-10-31T11:13:31;102003.28;;;14.34;100.00
10806;BME280;5455;53.224;6.000;2022-10-31T11:16:11;101991.91;;;14.40;100.00
10806;BME280;5455;53.224;6.000;2022-10-31T11:18:47;101989.03;;;14.52;100.00
10806;BME280;5455;53.224;6.000;2022-10-31T11:21:29;101979.38;;;14.61;100.00
10806;BME280;5455;53.224;6.000;2022-10-31T11:26:29;101976.34;;;14.51;100.00
10806;BME280;5455;53.224;6.000;2022-10-31T11:28:58;101966.31;;;14.46;100.00
10806;BME280;5455;53.224;6.000;2022-10-31T11:31:26;101958.41;;;14.48;100.00
10806;BME280;5455;53.224;6.000;2022-10-31T11:37:27;101957.78;;;14.55;100.00
10806;BME280;5455;53.224;6.000;2022-10-31T11:40:06;101954.41;;;14.61;100.00
10806;BME280;5455;53.224;6.000;2022-10-31T11:42:41;101955.44;;;14.72;100.00
10806;BME280;5455;53.224;6.000;2022-10-31T11:45:17;101947.72;;;14.81;100.00
10806;BME280;5455;53.224;6.000;2022-10-31T11:47:50;101940.13;;;14.78;100.00
10806;BME280;5455;53.224;6.000;2022-10-31T11:50:31;101937.34;;;14.78;100.00
10806;BME280;5455;53.224;6.000;2022-10-31T11:53:00;101936.81;;;14.73;100.00
10806;BME280;5455;53.224;6.000;2022-10-31T11:55:36;101933.09;;;14.65;100.00
10806;BME280;5455;53.224;6.000;2022-10-31T11:58:04;101930.66;;;14.64;100.00
10806;BME280;5455;53.224;6.000;2022-10-31T12:00:34;101919.03;;;14.58;100.00
10806;BME280;5455;53.224;6.000;2022-10-31T12:03:21;101928.88;;;14.56;100.00
10806;BME280;5455;53.224;6.000;2022-10-31T12:06:05;101925.91;;;14.49;100.00
10806;BME280;5455;53.224;6.000;2022-10-31T12:08:35;101924.59;;;14.43;100.00
10806;BME280;5455;53.224;6.000;2022-10-31T12:14:02;101917.84;;;14.28;100.00
10806;BME280;5455;53.224;6.000;2022-10-31T12:16:41;101913.81;;;14.25;100.00
10806;BME280;5455;53.224;6.000;2022-10-31T12:30:40;101885.72;;;14.43;100.00
10806;BME280;5455;53.224;6.000;2022-10-31T12:33:39;101881.25;;;14.54;100.00
10806;BME280;5455;53.224;6.000;2022-10-31T12:36:21;101872.00;;;14.65;100.00
10806;BME280;5455;53.224;6.000;2022-10-31T13:00:44;101815.03;;;14.90;100.00
10806;BME280;5455;53.224;6.000;2022-10-31T13:03:27;101813.22;;;14.98;100.00
10806;BME280;5455;53.224;6.000;2022-10-31T13:06:09;101810.56;;;15.05;100.00
10806;BME280;5455;53.224;6.000;2022-10-31T13:08:45;101813.44;;;15.09;100.00
10806;BME280;5455;53.224;6.000;2022-10-31T13:11:18;101814.75;;;15.15;100.00
10806;BME280;5455;53.224;6.000;2022-10-31T13:13:59;101816.44;;;15.19;100.00
10806;BME280;5455;53.224;6.000;2022-10-31T13:16:33;101814.97;;;15.25;100.00
10806;BME280;5455;53.224;6.000;2022-10-31T13:22:06;101810.09;;;15.41;100.00
10806;BME280;5455;53.224;6.000;2022-10-31T13:24:38;101796.81;;;15.51;100.00
10806;BME280;5455;53.224;6.000;2022-10-31T13:27:18;101797.81;;;15.62;100.00
10806;BME280;5455;53.224;6.000;2022-10-31T13:30:00;101789.66;;;15.72;100.00
10806;BME280;5455;53.224;6.000;2022-10-31T13:32:38;101788.44;;;15.70;100.00
10806;BME280;5455;53.224;6.000;2022-10-31T13:35:16;101780.63;;;15.56;100.00
10806;BME280;5455;53.224;6.000;2022-10-31T13:37:50;101776.47;;;15.47;100.00
10806;BME280;5455;53.224;6.000;2022-10-31T13:45:52;101750.88;;;15.37;100.00
10806;BME280;5455;53.224;6.000;2022-10-31T13:48:40;101738.47;;;15.31;100.00
10806;BME280;5455;53.224;6.000;2022-10-31T13:51:10;101738.25;;;15.21;100.00
10806;BME280;5455;53.224;6.000;2022-10-31T13:56:16;101737.03;;;14.99;100.00
10806;BME280;5455;53.224;6.000;2022-10-31T14:01:36;101738.25;;;14.79;100.00
10806;BME280;5455;53.224;6.000;2022-10-31T14:04:23;101722.22;;;14.72;100.00
10806;BME280;5455;53.224;6.000;2022-10-31T14:07:19;101709.47;;;14.68;100.00
10806;BME280;5455;53.224;6.000;2022-10-31T14:15:25;101705.81;;;14.83;100.00
10806;BME280;5455;53.224;6.000;2022-10-31T14:17:58;101709.28;;;14.99;100.00
10806;BME280;5455;53.224;6.000;2022-10-31T14:20:37;101715.19;;;15.17;100.00
10806;BME280;5455;53.224;6.000;2022-10-31T14:29:00;101709.94;;;15.34;100.00
10806;BME280;5455;53.224;6.000;2022-10-31T14:31:41;101708.00;;;15.38;100.00
10806;BME280;5455;53.224;6.000;2022-10-31T14:36:47;101684.47;;;15.32;100.00
10806;BME280;5455;53.224;6.000;2022-10-31T14:52:49;101668.25;;;15.12;100.00
10806;BME280;5455;53.224;6.000;2022-10-31T14:55:17;101658.69;;;15.09;100.00
10806;BME280;5455;53.224;6.000;2022-10-31T14:58:20;101655.84;;;15.06;100.00
10806;BME280;5455;53.224;6.000;2022-10-31T15:00:54;101664.09;;;15.02;100.00
10806;BME280;5455;53.224;6.000;2022-10-31T15:03:31;101650.59;;;15.01;100.00
10806;BME280;5455;53.224;6.000;2022-10-31T15:06:25;101641.75;;;14.95;100.00
10806;BME280;5455;53.224;6.000;2022-10-31T15:08:53;101637.38;;;14.94;100.00
10806;BME280;5455;53.224;6.000;2022-10-31T15:11:23;101630.59;;;14.92;100.00
10806;BME280;5455;53.224;6.000;2022-10-31T15:13:55;101627.75;;;14.88;100.00
10806;BME280;5455;53.224;6.000;2022-10-31T15:18:59;101615.78;;;14.84;100.00
10806;BME280;5455;53.224;6.000;2022-10-31T15:21:28;101607.47;;;14.84;100.00
10806;BME280;5455;53.224;6.000;2022-10-31T15:23:59;101601.03;;;14.80;100.00
10806;BME280;5455;53.224;6.000;2022-10-31T15:26:33;101598.56;;;14.75;100.00
10806;BME280;5455;53.224;6.000;2022-10-31T15:29:05;101600.88;;;14.73;100.00
10806;BME280;5455;53.224;6.000;2022-10-31T15:31:37;101590.91;;;14.68;100.00
10806;BME280;5455;53.224;6.000;2022-10-31T15:34:16;101593.59;;;14.65;100.00
10806;BME280;5455;53.224;6.000;2022-10-31T15:36:48;101580.03;;;14.60;100.00
10806;BME280;5455;53.224;6.000;2022-10-31T15:39:16;101581.56;;;14.57;100.00
10806;BME280;5455;53.224;6.000;2022-10-31T15:41:53;101587.06;;;14.54;100.00
10806;BME280;5455;53.224;6.000;2022-10-31T15:44:24;101591.75;;;14.50;100.00
10806;BME280;5455;53.224;6.000;2022-10-31T15:49:55;101581.22;;;14.40;100.00